createdAt,value
2018-01-20T00:02:06.441Z,87.50
2018-01-20T00:04:32.857Z,86.70
2018-01-20T00:06:59.250Z,86.60
2018-01-20T00:09:37.832Z,86.60
2018-01-20T00:12:04.253Z,86.60
2018-01-20T00:14:30.697Z,86.90
2018-01-20T00:16:57.091Z,86.60
2018-01-20T00:19:23.478Z,86.10
2018-01-20T00:21:49.861Z,86.40
2018-01-20T00:24:16.969Z,86.40
2018-01-20T00:26:43.386Z,86.40
2018-01-20T00:29:09.782Z,86.60
2018-01-20T00:31:36.911Z,86.60
2018-01-20T00:34:03.318Z,86.50
2018-01-20T00:36:29.690Z,86.30
2018-01-20T00:38:56.806Z,86.80
2018-01-20T00:41:23.188Z,86.80
2018-01-20T00:43:49.587Z,86.90
2018-01-20T00:46:16.725Z,87.00
2018-01-20T00:48:43.135Z,86.80
2018-01-20T00:51:09.505Z,86.90
2018-01-20T00:53:35.894Z,87.40
2018-01-20T00:56:02.267Z,87.80
2018-01-20T00:58:28.653Z,87.50
2018-01-20T01:00:55.034Z,86.80
2018-01-20T01:03:21.430Z,86.50
2018-01-20T01:05:47.838Z,86.40
2018-01-20T01:08:14.235Z,86.60
2018-01-20T01:10:41.371Z,88.30
2018-01-20T01:13:07.761Z,88.20
2018-01-20T01:15:34.142Z,89.70
2018-01-20T01:18:01.440Z,89.40
2018-01-20T01:20:27.838Z,88.80
2018-01-20T01:22:54.959Z,88.00
2018-01-20T01:25:21.368Z,88.00
2018-01-20T01:27:48.095Z,88.20
2018-01-20T01:30:14.498Z,88.20
2018-01-20T01:32:41.630Z,87.80
2018-01-20T01:35:08.060Z,87.80
2018-01-20T01:37:35.273Z,87.40
2018-01-20T01:40:01.653Z,87.40
2018-01-20T01:42:28.791Z,87.80
2018-01-20T01:44:55.190Z,87.80
2018-01-20T01:47:21.563Z,88.20
2018-01-20T01:49:48.733Z,87.60
2018-01-20T01:52:15.123Z,87.50
2018-01-20T01:54:41.529Z,87.70
2018-01-20T01:57:08.031Z,88.10
2018-01-20T01:59:35.156Z,87.40
2018-01-20T02:02:02.311Z,88.20
2018-01-20T02:04:29.464Z,87.80
2018-01-20T02:06:56.574Z,87.80
2018-01-20T02:09:22.975Z,87.80
2018-01-20T02:11:49.361Z,87.30
2018-01-20T02:14:16.502Z,89.20
2018-01-20T02:16:42.940Z,89.20
2018-01-20T02:19:09.338Z,90.30
2018-01-20T02:21:35.724Z,90.50
2018-01-20T02:24:03.010Z,90.30
2018-01-20T02:26:29.719Z,90.30
2018-01-20T02:28:56.839Z,90.00
2018-01-20T02:31:23.243Z,90.00
2018-01-20T02:33:49.638Z,89.40
2018-01-20T02:36:16.020Z,89.20
2018-01-20T02:38:42.437Z,88.90
2018-01-20T02:41:08.798Z,89.20
2018-01-20T02:43:35.283Z,89.80
2018-01-20T02:46:01.709Z,90.20
2018-01-20T02:48:28.087Z,90.00
2018-01-20T02:50:54.471Z,90.40
2018-01-20T02:53:20.859Z,90.50
2018-01-20T02:55:47.230Z,91.10
2018-01-20T02:58:14.383Z,90.90
2018-01-20T03:00:40.758Z,90.90
2018-01-20T03:03:07.138Z,90.70
2018-01-20T03:05:34.268Z,90.50
2018-01-20T03:08:01.375Z,90.30
2018-01-20T03:10:27.748Z,90.30
2018-01-20T03:12:54.125Z,90.30
2018-01-20T03:15:20.523Z,90.60
2018-01-20T03:17:47.656Z,90.50
2018-01-20T03:20:14.798Z,90.20
2018-01-20T03:22:41.179Z,90.20
2018-01-20T03:25:07.678Z,90.00
2018-01-20T03:27:34.876Z,90.00
2018-01-20T03:30:01.306Z,90.00
2018-01-20T03:32:27.754Z,89.90
2018-01-20T03:34:54.295Z,90.00
2018-01-20T03:37:20.771Z,90.10
2018-01-20T03:39:47.185Z,90.20
2018-01-20T03:42:13.624Z,90.20
2018-01-20T03:44:40.750Z,90.00
2018-01-20T03:47:08.046Z,90.50
2018-01-20T03:49:34.494Z,90.30
2018-01-20T03:52:00.903Z,90.30
2018-01-20T03:54:27.326Z,90.10
2018-01-20T03:56:54.455Z,90.00
2018-01-20T03:59:20.842Z,90.00
2018-01-20T04:01:47.222Z,89.70
2018-01-20T04:04:13.656Z,89.90
2018-01-20T04:06:40.059Z,89.50
2018-01-20T04:09:06.434Z,89.80
2018-01-20T04:11:32.804Z,90.00
2018-01-20T04:13:59.195Z,90.40
2018-01-20T04:16:26.317Z,90.00
2018-01-20T04:18:52.728Z,90.00
2018-01-20T04:21:19.132Z,90.10
2018-01-20T04:23:46.259Z,90.10
2018-01-20T04:26:12.835Z,90.00
2018-01-20T04:28:39.206Z,90.10
2018-01-20T04:31:05.580Z,90.00
2018-01-20T04:33:32.735Z,90.20
2018-01-20T04:35:59.842Z,90.20
2018-01-20T04:38:27.728Z,90.30
2018-01-20T04:40:54.874Z,90.00
2018-01-20T04:43:22.030Z,90.20
2018-01-20T04:45:49.177Z,90.00
2018-01-20T04:48:15.549Z,90.00
2018-01-20T04:50:41.933Z,90.10
2018-01-20T04:53:08.297Z,90.30
2018-01-20T04:55:34.710Z,90.30
2018-01-20T04:58:01.851Z,90.40
2018-01-20T05:00:28.990Z,90.80
2018-01-20T05:02:55.374Z,90.50
2018-01-20T05:05:21.789Z,90.40
2018-01-20T05:07:48.187Z,90.30
2018-01-20T05:10:16.042Z,90.20
2018-01-20T05:12:42.421Z,90.20
2018-01-20T05:15:08.862Z,90.20
2018-01-20T05:17:35.260Z,90.40
2018-01-20T05:20:02.432Z,90.30
2018-01-20T05:22:28.826Z,90.20
2018-01-20T05:24:55.223Z,90.20
2018-01-20T05:27:21.594Z,89.80
2018-01-20T05:29:47.970Z,90.00
2018-01-20T05:32:14.357Z,89.90
2018-01-20T05:34:40.748Z,90.00
2018-01-20T05:37:07.188Z,90.10
2018-01-20T05:39:33.590Z,90.10
2018-01-20T05:42:00.155Z,90.00
2018-01-20T05:44:26.531Z,90.00
2018-01-20T05:46:52.905Z,90.10
2018-01-20T05:49:19.278Z,90.20
2018-01-20T05:51:45.694Z,90.00
2018-01-20T05:54:12.082Z,89.60
2018-01-20T05:56:38.461Z,89.70
2018-01-20T05:59:04.873Z,90.20
2018-01-20T06:01:31.246Z,90.60
2018-01-20T06:03:57.609Z,90.30
2018-01-20T06:06:23.997Z,90.20
2018-01-20T06:08:50.397Z,90.30
2018-01-20T06:11:16.773Z,90.40
2018-01-20T06:13:44.011Z,90.20
2018-01-20T06:16:10.410Z,90.20
2018-01-20T06:18:36.807Z,89.90
2018-01-20T06:21:03.972Z,90.80
2018-01-20T06:23:30.362Z,90.80
2018-01-20T06:25:56.758Z,90.60
2018-01-20T06:28:23.129Z,90.30
2018-01-20T06:30:49.513Z,90.40
2018-01-20T06:33:15.886Z,90.70
2018-01-20T06:35:42.291Z,90.60
2018-01-20T06:38:08.677Z,90.70
2018-01-20T06:40:36.075Z,90.40
2018-01-20T06:43:02.480Z,90.40
2018-01-20T06:45:28.916Z,90.50
2018-01-20T06:47:55.289Z,90.30
2018-01-20T06:50:21.685Z,90.50
2018-01-20T06:52:48.068Z,90.60
2018-01-20T06:55:14.462Z,90.60
2018-01-20T06:57:40.822Z,90.60
2018-01-20T07:00:07.263Z,90.80
2018-01-20T07:02:33.724Z,90.60
2018-01-20T07:05:00.100Z,90.60
2018-01-20T07:07:26.500Z,90.70
2018-01-20T07:09:52.863Z,90.90
2018-01-20T07:12:19.237Z,90.70
2018-01-20T07:14:46.838Z,90.50
2018-01-20T07:17:13.275Z,90.70
2018-01-20T07:19:39.667Z,91.70
2018-01-20T07:22:06.778Z,92.20
2018-01-20T07:24:33.145Z,92.20
2018-01-20T07:26:59.537Z,92.20
2018-01-20T07:29:25.905Z,92.00
2018-01-20T07:31:53.006Z,91.50
2018-01-20T07:34:19.411Z,91.50
2018-01-20T07:36:46.551Z,92.30
2018-01-20T07:39:13.706Z,91.90
2018-01-20T07:41:40.817Z,92.20
2018-01-20T07:44:07.245Z,92.20
2018-01-20T07:46:33.686Z,91.90
2018-01-20T07:49:00.086Z,91.80
2018-01-20T07:51:26.476Z,90.90
2018-01-20T07:53:53.646Z,90.10
2018-01-20T07:56:20.053Z,90.10
2018-01-20T07:58:47.149Z,88.70
2018-01-20T08:01:13.551Z,88.70
2018-01-20T08:03:40.711Z,86.30
2018-01-20T08:06:07.160Z,86.30
2018-01-20T08:08:33.526Z,86.70
2018-01-20T08:10:59.910Z,87.90
2018-01-20T08:13:26.282Z,88.40
2018-01-20T08:15:53.457Z,89.20
2018-01-20T08:18:20.585Z,89.50
2018-01-20T08:20:46.954Z,89.50
2018-01-20T08:23:14.077Z,89.00
2018-01-20T08:25:40.456Z,89.00
2018-01-20T08:28:06.860Z,89.00
2018-01-20T08:30:34.026Z,88.40
2018-01-20T08:33:01.139Z,88.10
2018-01-20T08:35:28.293Z,87.60
2018-01-20T08:37:54.679Z,87.60
2018-01-20T08:40:21.050Z,87.90
2018-01-20T08:42:47.814Z,89.40
2018-01-20T08:45:14.323Z,90.50
2018-01-20T08:47:40.718Z,90.80
2018-01-20T08:50:07.093Z,91.10
2018-01-20T08:52:33.478Z,91.40
2018-01-20T08:54:59.886Z,91.70
2018-01-20T08:57:26.294Z,91.30
2018-01-20T08:59:52.729Z,90.70
2018-01-20T09:02:19.884Z,90.20
2018-01-20T09:04:47.001Z,90.10
2018-01-20T09:07:13.376Z,90.10
2018-01-20T09:09:40.512Z,90.10
2018-01-20T09:12:07.620Z,90.20
2018-01-20T09:14:34.014Z,89.80
2018-01-20T09:17:01.201Z,89.30
2018-01-20T09:19:27.594Z,89.20
2018-01-20T09:21:54.001Z,89.60
2018-01-20T09:24:20.362Z,90.10
2018-01-20T09:26:47.815Z,90.30
2018-01-20T09:29:14.934Z,90.40
2018-01-20T09:31:41.436Z,90.40
2018-01-20T09:34:07.829Z,90.70
2018-01-20T09:36:34.946Z,91.30
2018-01-20T09:39:01.355Z,91.30
2018-01-20T09:41:27.744Z,91.50
2018-01-20T09:43:54.117Z,92.00
2018-01-20T09:46:20.530Z,91.60
2018-01-20T09:48:46.913Z,91.60
2018-01-20T09:51:13.294Z,91.40
2018-01-20T09:53:39.675Z,91.10
2018-01-20T09:56:06.047Z,91.30
2018-01-20T09:58:32.502Z,91.80
2018-01-20T10:00:58.896Z,91.80
2018-01-20T10:03:25.325Z,92.10
2018-01-20T10:05:52.461Z,92.40
2018-01-20T10:08:19.584Z,92.20
2018-01-20T10:10:45.999Z,92.10
2018-01-20T10:13:12.431Z,92.30
2018-01-20T10:15:38.872Z,92.30
2018-01-20T10:18:05.290Z,92.10
2018-01-20T10:20:31.673Z,92.50
2018-01-20T10:22:58.794Z,91.60
2018-01-20T10:25:25.174Z,91.60
2018-01-20T10:27:51.621Z,91.70
2018-01-20T10:30:18.054Z,91.10
2018-01-20T10:32:45.258Z,91.00
2018-01-20T10:35:11.693Z,91.30
2018-01-20T10:37:38.829Z,90.90
2018-01-20T10:40:05.226Z,90.90
2018-01-20T10:42:31.637Z,90.90
2018-01-20T10:44:58.018Z,90.80
2018-01-20T10:47:24.399Z,91.40
2018-01-20T10:49:51.523Z,90.90
2018-01-20T10:52:18.678Z,90.90
2018-01-20T10:54:45.868Z,90.80
2018-01-20T10:57:12.325Z,90.50
2018-01-20T10:59:38.693Z,90.40
2018-01-20T11:02:05.862Z,90.50
2018-01-20T11:04:32.283Z,90.50
2018-01-20T11:06:59.446Z,91.10
2018-01-20T11:09:25.913Z,91.10
2018-01-20T11:11:52.307Z,90.20
2018-01-20T11:14:18.715Z,90.90
2018-01-20T11:16:45.107Z,90.30
2018-01-20T11:19:11.507Z,90.40
2018-01-20T11:21:37.894Z,89.40
2018-01-20T11:24:04.277Z,89.70
2018-01-20T11:26:31.308Z,90.70
2018-01-20T11:28:58.494Z,91.20
2018-01-20T11:31:24.927Z,91.20
2018-01-20T11:33:51.355Z,90.70
2018-01-20T11:36:18.602Z,90.50
2018-01-20T11:38:44.995Z,90.30
2018-01-20T11:41:12.186Z,90.10
2018-01-20T11:43:38.582Z,90.10
2018-01-20T11:46:05.724Z,90.50
2018-01-20T11:48:32.871Z,89.50
2018-01-20T11:50:59.974Z,90.00
2018-01-20T11:53:26.355Z,90.00
2018-01-20T11:55:52.723Z,90.10
2018-01-20T11:58:19.133Z,90.20
2018-01-20T12:00:45.534Z,89.80
2018-01-20T12:03:11.993Z,90.00
2018-01-20T12:05:39.159Z,89.00
2018-01-20T12:08:05.560Z,89.00
2018-01-20T12:10:31.934Z,89.60
2018-01-20T12:12:58.384Z,89.40
2018-01-20T12:15:24.790Z,88.10
2018-01-20T12:17:51.216Z,87.90
2018-01-20T12:20:17.684Z,88.60
2018-01-20T12:22:44.135Z,89.00
2018-01-20T12:25:10.609Z,87.50
2018-01-20T12:27:37.071Z,88.10
2018-01-20T12:30:03.586Z,87.20
2018-01-20T12:32:30.095Z,87.90
2018-01-20T12:34:57.374Z,88.30
2018-01-20T12:37:23.921Z,88.30
2018-01-20T12:39:51.238Z,87.80
2018-01-20T12:42:18.416Z,88.80
2018-01-20T12:44:44.928Z,88.80
2018-01-20T12:47:12.131Z,90.00
2018-01-20T12:49:38.585Z,89.20
2018-01-20T12:52:05.061Z,88.60
2018-01-20T12:54:31.474Z,89.00
2018-01-20T12:56:58.668Z,89.30
2018-01-20T12:59:25.105Z,89.30
2018-01-20T13:01:51.571Z,89.00
2018-01-20T13:04:18.927Z,89.50
2018-01-20T13:06:45.307Z,88.90
2018-01-20T13:09:13.374Z,89.10
2018-01-20T13:11:39.959Z,89.10
2018-01-20T13:14:07.166Z,90.00
2018-01-20T13:16:33.577Z,89.30
2018-01-20T13:19:00.725Z,89.20
2018-01-20T13:21:27.868Z,89.40
2018-01-20T13:23:54.274Z,89.30
2018-01-20T13:26:20.694Z,89.70
2018-01-20T13:28:47.127Z,89.30
2018-01-20T13:31:13.606Z,89.00
2018-01-20T13:33:40.717Z,89.60
2018-01-20T13:36:07.086Z,89.50
2018-01-20T13:38:34.227Z,90.00
2018-01-20T13:41:00.681Z,90.00
2018-01-20T13:43:27.798Z,89.80
2018-01-20T13:45:54.177Z,89.70
2018-01-20T13:48:20.589Z,90.00
2018-01-20T13:50:47.743Z,90.30
2018-01-20T13:53:14.871Z,89.80
2018-01-20T13:55:41.278Z,89.80
2018-01-20T13:58:07.697Z,90.00
2018-01-20T14:00:34.107Z,90.20
2018-01-20T14:03:00.568Z,90.50
2018-01-20T14:05:26.998Z,90.60
2018-01-20T14:07:53.553Z,90.50
2018-01-20T14:10:19.959Z,90.30
2018-01-20T14:12:46.328Z,90.50
2018-01-20T14:15:12.710Z,90.20
2018-01-20T14:17:39.132Z,90.20
2018-01-20T14:20:05.564Z,89.60
2018-01-20T14:22:32.756Z,89.10
2018-01-20T14:24:59.121Z,89.10
2018-01-20T14:27:26.248Z,88.90
2018-01-20T14:29:52.659Z,88.90
2018-01-20T14:32:19.061Z,89.50
2018-01-20T14:34:45.492Z,89.50
2018-01-20T14:37:11.880Z,89.90
2018-01-20T14:39:38.256Z,89.90
2018-01-20T14:42:04.820Z,90.10
2018-01-20T14:44:31.237Z,90.00
2018-01-20T14:46:57.629Z,90.20
2018-01-20T14:49:23.995Z,89.90
2018-01-20T14:51:50.417Z,90.10
2018-01-20T14:54:17.813Z,90.90
2018-01-20T14:56:44.212Z,90.90
2018-01-20T14:59:10.793Z,91.10
2018-01-20T15:01:37.174Z,90.80
2018-01-20T15:04:03.639Z,91.30
2018-01-20T15:06:30.043Z,91.20
2018-01-20T15:08:56.428Z,91.20
2018-01-20T15:11:23.830Z,91.20
2018-01-20T15:13:50.272Z,91.20
2018-01-20T15:16:16.671Z,91.50
2018-01-20T15:18:43.844Z,92.30
2018-01-20T15:21:10.335Z,92.20
2018-01-20T15:23:36.725Z,92.10
2018-01-20T15:26:03.129Z,92.50
2018-01-20T15:28:30.234Z,92.60
2018-01-20T15:30:57.503Z,92.60
2018-01-20T15:33:23.924Z,92.40
2018-01-20T15:35:50.284Z,91.70
2018-01-20T15:38:17.431Z,91.20
2018-01-20T15:40:44.581Z,90.30
2018-01-20T15:43:12.627Z,90.30
2018-01-20T15:45:39.045Z,90.20
2018-01-20T15:48:05.481Z,89.90
2018-01-20T15:50:31.847Z,90.30
2018-01-20T15:52:58.219Z,90.00
2018-01-20T15:55:24.619Z,90.10
2018-01-20T15:57:51.742Z,90.30
2018-01-20T16:00:18.138Z,90.30
2018-01-20T16:02:44.550Z,90.30
2018-01-20T16:05:11.681Z,90.50
2018-01-20T16:07:38.824Z,90.60
2018-01-20T16:10:06.029Z,90.50
2018-01-20T16:12:32.426Z,90.50
2018-01-20T16:14:59.547Z,90.30
2018-01-20T16:17:26.380Z,90.30
2018-01-20T16:19:52.805Z,90.10
2018-01-20T16:22:19.269Z,90.40
2018-01-20T16:27:12.240Z,90.50
2018-01-20T16:29:39.401Z,90.00
2018-01-20T16:32:06.526Z,90.00
2018-01-20T16:34:33.638Z,90.20
2018-01-20T16:37:00.046Z,90.20
2018-01-20T16:39:26.439Z,90.20
2018-01-20T16:41:53.631Z,89.80
2018-01-20T16:44:19.996Z,89.70
2018-01-20T16:46:46.366Z,89.10
2018-01-20T16:49:13.561Z,90.20
2018-01-20T16:51:39.997Z,90.20
2018-01-20T16:54:06.446Z,90.00
2018-01-20T16:56:32.835Z,89.90
2018-01-20T16:58:59.206Z,89.80
2018-01-20T17:01:25.595Z,90.00
2018-01-20T17:03:51.962Z,90.30
2018-01-20T17:06:18.354Z,90.20
2018-01-20T17:08:44.734Z,90.20
2018-01-20T17:11:11.126Z,90.20
2018-01-20T17:13:37.967Z,89.50
2018-01-20T17:16:04.355Z,89.20
2018-01-20T17:18:30.742Z,89.70
2018-01-20T17:20:57.158Z,90.10
2018-01-20T17:23:23.614Z,90.20
2018-01-20T17:25:49.994Z,90.30
2018-01-20T17:28:16.368Z,90.20
2018-01-20T17:30:42.749Z,90.10
2018-01-20T17:33:09.148Z,90.00
2018-01-20T17:35:35.540Z,89.50
2018-01-20T17:38:01.916Z,89.30
2018-01-20T17:40:28.348Z,89.80
2018-01-20T17:42:54.740Z,89.90
2018-01-20T17:45:21.177Z,89.00
2018-01-20T17:47:47.557Z,89.10
2018-01-20T17:50:13.976Z,89.70
2018-01-20T17:52:40.451Z,88.90
2018-01-20T17:55:07.592Z,88.00
2018-01-20T17:57:33.981Z,87.90
2018-01-20T18:00:00.362Z,87.70
2018-01-20T18:02:27.494Z,89.30
2018-01-20T18:04:53.853Z,89.30
2018-01-20T18:07:21.026Z,90.40
2018-01-20T18:09:47.403Z,90.40
2018-01-20T18:12:13.790Z,90.30
2018-01-20T18:14:40.178Z,90.30
2018-01-20T18:17:06.569Z,90.10
2018-01-20T18:19:32.943Z,89.70
2018-01-20T18:21:59.338Z,89.90
2018-01-20T18:24:25.794Z,90.10
2018-01-20T18:26:52.189Z,90.00
2018-01-20T18:29:18.618Z,90.30
2018-01-20T18:31:45.015Z,90.10
2018-01-20T18:34:11.397Z,89.80
2018-01-20T18:36:37.810Z,88.90
2018-01-20T18:39:04.245Z,89.00
2018-01-20T18:41:30.885Z,87.40
2018-01-20T18:43:57.304Z,85.90
2018-01-20T18:46:23.710Z,85.70
2018-01-20T18:48:50.907Z,87.50
2018-01-20T18:51:17.300Z,87.40
2018-01-20T18:53:44.459Z,87.10
2018-01-20T18:56:10.855Z,87.10
2018-01-20T18:58:37.236Z,87.00
2018-01-20T19:01:03.615Z,87.60
2018-01-20T19:03:29.971Z,87.80
2018-01-20T19:05:57.110Z,88.90
2018-01-20T19:08:23.685Z,88.90
2018-01-20T19:10:50.129Z,89.20
2018-01-20T19:13:16.546Z,90.20
2018-01-20T19:15:42.930Z,91.00
2018-01-20T19:18:09.306Z,90.70
2018-01-20T19:20:35.701Z,90.30
2018-01-20T19:23:02.102Z,90.00
2018-01-20T19:25:28.757Z,88.80
2018-01-20T19:27:55.940Z,88.70
2018-01-20T19:30:22.334Z,88.70
2018-01-20T19:32:48.716Z,89.00
2018-01-20T19:35:15.847Z,88.60
2018-01-20T19:37:42.235Z,88.60
2018-01-20T19:40:08.622Z,88.60
2018-01-20T19:42:35.806Z,88.70
2018-01-20T19:45:02.267Z,88.70
2018-01-20T19:47:28.682Z,88.50
2018-01-20T19:49:55.051Z,88.50
2018-01-20T19:52:21.422Z,88.60
2018-01-20T19:54:47.816Z,88.20
2018-01-20T19:57:14.193Z,88.30
2018-01-20T19:59:40.574Z,88.70
2018-01-20T20:02:07.745Z,90.10
2018-01-20T20:04:34.169Z,90.10
2018-01-20T20:07:01.310Z,90.50
2018-01-20T20:09:28.445Z,90.30
2018-01-20T20:11:54.868Z,90.30
2018-01-20T20:14:21.266Z,90.20
2018-01-20T20:16:47.710Z,90.00
2018-01-20T20:19:14.090Z,89.70
2018-01-20T20:21:40.526Z,89.80
2018-01-20T20:24:07.678Z,88.00
2018-01-20T20:26:34.834Z,88.00
2018-01-20T20:29:02.119Z,88.50
2018-01-20T20:31:28.521Z,88.40
2018-01-20T20:33:55.274Z,89.10
2018-01-20T20:36:21.725Z,89.60
2018-01-20T20:38:48.125Z,90.00
2018-01-20T20:41:15.271Z,90.00
2018-01-20T20:43:42.384Z,90.10
2018-01-20T20:46:08.821Z,90.10
2018-01-20T20:48:35.232Z,90.10
2018-01-20T20:51:01.619Z,90.20
2018-01-20T20:53:28.779Z,90.70
2018-01-20T21:32:29.943Z,98.10
2018-01-20T21:34:57.278Z,98.80
2018-01-20T21:37:23.773Z,98.80
2018-01-20T21:39:50.186Z,97.90
2018-01-20T21:42:16.572Z,96.30
2018-01-20T21:44:42.981Z,94.80
2018-01-20T21:47:09.374Z,93.90
2018-01-20T21:49:35.771Z,93.20
2018-01-20T21:52:02.198Z,92.70
2018-01-20T21:54:28.609Z,92.40
2018-01-20T21:56:54.995Z,92.00
2018-01-20T21:59:21.354Z,92.10
2018-01-20T22:01:47.750Z,92.20
2018-01-20T22:04:14.139Z,92.70
2018-01-20T22:06:40.512Z,92.20
2018-01-20T22:09:06.884Z,92.40
2018-01-20T22:11:33.266Z,93.10
2018-01-20T22:13:59.640Z,92.60
2018-01-20T22:16:26.022Z,92.80
2018-01-20T22:18:52.402Z,93.40
2018-01-20T22:21:18.811Z,93.20
2018-01-20T22:23:45.230Z,93.10
2018-01-20T22:26:12.365Z,93.70
2018-01-20T22:28:40.238Z,93.40
2018-01-20T22:31:06.613Z,93.40
2018-01-20T22:33:32.991Z,93.00
2018-01-20T22:35:59.376Z,92.70
2018-01-20T22:38:25.783Z,92.40
2018-01-20T22:40:52.898Z,93.10
2018-01-20T22:43:19.254Z,93.10
2018-01-20T22:45:47.237Z,92.70
2018-01-20T22:48:13.638Z,92.60
2018-01-20T22:50:40.019Z,92.60
2018-01-20T22:53:07.146Z,92.80
2018-01-20T22:55:34.278Z,92.80
2018-01-20T22:58:01.414Z,93.00
2018-01-20T23:00:27.831Z,93.00
2018-01-20T23:02:54.202Z,93.00
2018-01-20T23:05:20.593Z,93.00
2018-01-20T23:07:46.957Z,92.80
2018-01-20T23:10:13.359Z,92.60
2018-01-20T23:12:39.741Z,92.60
2018-01-20T23:15:06.863Z,92.10
2018-01-20T23:17:33.246Z,92.10
2018-01-20T23:19:59.646Z,91.90
2018-01-20T23:22:26.021Z,91.70
2018-01-20T23:24:52.386Z,91.60
2018-01-20T23:27:18.752Z,91.70
2018-01-20T23:29:45.897Z,91.70
2018-01-20T23:32:13.083Z,91.50
2018-01-20T23:34:39.472Z,91.50
2018-01-20T23:37:06.591Z,92.00
2018-01-20T23:39:32.995Z,92.00
2018-01-20T23:41:59.359Z,92.00
2018-01-20T23:44:25.767Z,92.20
2018-01-20T23:46:52.235Z,92.00
2018-01-20T23:49:18.605Z,92.20
2018-01-20T23:51:45.032Z,92.00
2018-01-20T23:54:14.804Z,91.90
2018-01-20T23:56:41.243Z,91.70
2018-01-20T23:59:07.714Z,91.70
